createdAt,value
2023-02-02T00:00:50.739Z,50.60
2023-02-02T00:01:51.129Z,53.33
2023-02-02T00:02:51.419Z,72.19
2023-02-02T00:03:51.653Z,50.43
2023-02-02T00:04:51.946Z,52.69
2023-02-02T00:05:52.275Z,48.98
2023-02-02T00:06:52.649Z,49.31
2023-02-02T00:07:52.828Z,71.87
2023-02-02T00:08:53.136Z,54.14
2023-02-02T00:09:53.469Z,63.81
2023-02-02T00:10:53.801Z,59.94
2023-02-02T00:11:54.393Z,56.24
2023-02-02T00:12:54.435Z,51.24
2023-02-02T00:13:54.760Z,52.21
2023-02-02T00:14:55.033Z,51.88
2023-02-02T00:15:55.457Z,49.47
2023-02-02T00:16:55.694Z,54.14
2023-02-02T00:17:55.989Z,48.66
2023-02-02T00:18:56.286Z,51.08
2023-02-02T00:19:56.595Z,55.11
2023-02-02T00:20:56.875Z,52.69
2023-02-02T00:21:57.268Z,75.09
2023-02-02T00:23:01.213Z,66.06
2023-02-02T00:23:57.805Z,55.59
2023-02-02T00:24:58.089Z,53.82
2023-02-02T00:25:58.401Z,52.53
2023-02-02T00:26:58.803Z,48.66
2023-02-02T00:27:59.002Z,47.70
2023-02-02T00:28:59.358Z,51.72
2023-02-02T00:29:59.595Z,65.10
2023-02-02T00:30:59.820Z,48.66
2023-02-02T00:32:00.149Z,51.72
2023-02-02T00:33:00.307Z,58.81
2023-02-02T00:34:00.699Z,55.75
2023-02-02T00:35:01.002Z,51.08
2023-02-02T00:36:01.310Z,58.33
2023-02-02T00:37:01.515Z,55.91
2023-02-02T00:38:01.747Z,53.33
2023-02-02T00:39:02.055Z,56.24
2023-02-02T00:40:02.375Z,50.76
2023-02-02T00:41:02.671Z,50.11
2023-02-02T00:42:03.031Z,52.21
2023-02-02T00:43:03.283Z,50.43
2023-02-02T00:44:03.642Z,56.40
2023-02-02T00:45:03.831Z,51.56
2023-02-02T00:46:04.191Z,55.59
2023-02-02T00:47:04.825Z,48.66
2023-02-02T00:48:04.725Z,58.65
2023-02-02T00:49:04.976Z,48.50
2023-02-02T00:50:05.336Z,51.72
2023-02-02T00:51:05.626Z,49.79
2023-02-02T00:52:06.393Z,50.11
2023-02-02T00:53:06.387Z,48.50
2023-02-02T00:54:06.643Z,63.00
2023-02-02T00:55:06.878Z,48.34
2023-02-02T00:56:06.986Z,48.98
2023-02-02T00:57:07.286Z,56.40
2023-02-02T00:58:07.657Z,48.66
2023-02-02T00:59:07.864Z,52.21
2023-02-02T01:00:08.193Z,48.66
2023-02-02T01:01:08.548Z,54.46
2023-02-02T01:02:08.841Z,48.66
2023-02-02T01:03:09.008Z,53.82
2023-02-02T01:04:09.347Z,50.27
2023-02-02T01:05:09.638Z,50.11
2023-02-02T01:06:09.961Z,58.17
2023-02-02T01:07:10.218Z,58.49
2023-02-02T01:08:10.579Z,56.88
2023-02-02T01:09:10.891Z,53.82
2023-02-02T01:10:11.200Z,55.43
2023-02-02T01:11:11.521Z,78.47
2023-02-02T01:12:11.825Z,53.50
2023-02-02T01:13:12.143Z,53.82
2023-02-02T01:14:12.461Z,59.62
2023-02-02T01:15:12.754Z,50.43
2023-02-02T01:16:13.204Z,55.27
2023-02-02T01:17:13.363Z,55.11
2023-02-02T01:18:13.635Z,49.47
2023-02-02T01:19:13.896Z,51.88
2023-02-02T01:20:14.266Z,52.37
2023-02-02T01:21:14.591Z,48.82
2023-02-02T01:22:14.916Z,60.42
2023-02-02T01:23:15.110Z,48.66
2023-02-02T01:24:15.433Z,49.95
2023-02-02T01:25:15.676Z,76.54
2023-02-02T01:26:16.063Z,48.98
2023-02-02T01:27:16.349Z,48.66
2023-02-02T01:28:16.643Z,48.34
2023-02-02T01:29:17.052Z,51.88
2023-02-02T01:30:17.251Z,48.18
2023-02-02T01:31:17.538Z,47.37
2023-02-02T01:32:17.832Z,49.15
2023-02-02T01:33:18.157Z,52.69
2023-02-02T01:34:18.472Z,50.11
2023-02-02T01:35:18.797Z,53.98
2023-02-02T01:36:19.089Z,49.79
2023-02-02T01:37:19.443Z,49.31
2023-02-02T01:38:19.728Z,53.01
2023-02-02T01:39:20.082Z,49.63
2023-02-02T01:40:20.400Z,49.15
2023-02-02T01:41:20.570Z,51.88
2023-02-02T01:42:20.929Z,52.53
2023-02-02T01:43:21.231Z,48.34
2023-02-02T01:44:21.554Z,53.01
2023-02-02T01:45:21.944Z,53.98
2023-02-02T01:46:22.160Z,48.34
2023-02-02T01:47:22.466Z,50.92
2023-02-02T01:48:22.703Z,57.36
2023-02-02T01:49:23.019Z,63.49
2023-02-02T01:50:23.332Z,48.50
2023-02-02T01:51:23.933Z,63.33
2023-02-02T01:52:23.931Z,75.41
2023-02-02T01:53:24.220Z,53.98
2023-02-02T01:54:24.536Z,52.05
2023-02-02T01:55:25.096Z,52.69
2023-02-02T01:56:25.082Z,52.85
2023-02-02T01:57:25.401Z,49.15
2023-02-02T01:58:25.728Z,59.78
2023-02-02T01:59:26.037Z,49.15
2023-02-02T02:00:26.414Z,50.11
2023-02-02T02:01:26.615Z,49.95
2023-02-02T02:02:26.950Z,52.37
2023-02-02T02:03:27.128Z,49.31
2023-02-02T02:04:27.439Z,52.21
2023-02-02T02:05:27.786Z,49.47
2023-02-02T02:06:28.078Z,50.27
2023-02-02T02:07:28.389Z,53.33
2023-02-02T02:08:28.687Z,51.24
2023-02-02T02:09:28.913Z,48.50
2023-02-02T02:10:29.217Z,48.34
2023-02-02T02:11:29.684Z,48.98
2023-02-02T02:12:29.817Z,51.88
2023-02-02T02:13:30.132Z,48.34
2023-02-02T02:14:30.508Z,51.40
2023-02-02T02:15:30.677Z,53.98
2023-02-02T02:16:31.082Z,49.31
2023-02-02T02:17:31.283Z,52.21
2023-02-02T02:18:31.685Z,50.27
2023-02-02T02:19:31.893Z,48.82
2023-02-02T02:20:32.180Z,51.56
2023-02-02T02:21:32.461Z,48.98
2023-02-02T02:22:32.830Z,50.43
2023-02-02T02:23:32.989Z,48.66
2023-02-02T02:24:33.294Z,49.95
2023-02-02T02:25:33.679Z,49.95
2023-02-02T02:26:33.918Z,53.50
2023-02-02T02:27:34.187Z,48.66
2023-02-02T02:28:34.507Z,48.34
2023-02-02T02:29:34.800Z,54.14
2023-02-02T02:30:35.273Z,53.17
2023-02-02T02:31:35.529Z,54.95
2023-02-02T02:32:35.777Z,49.15
2023-02-02T02:33:35.941Z,49.63
2023-02-02T02:34:36.260Z,48.82
2023-02-02T02:35:36.599Z,55.75
2023-02-02T02:36:36.956Z,50.43
2023-02-02T02:37:37.230Z,52.21
2023-02-02T02:38:37.654Z,56.56
2023-02-02T02:39:37.826Z,53.17
2023-02-02T02:40:38.171Z,49.31
2023-02-02T02:41:38.477Z,49.79
2023-02-02T02:42:39.741Z,49.15
2023-02-02T02:43:39.040Z,48.18
2023-02-02T02:44:39.376Z,51.72
2023-02-02T02:45:39.704Z,55.75
2023-02-02T02:46:40.007Z,51.56
2023-02-02T02:47:40.315Z,48.34
2023-02-02T02:48:40.681Z,48.66
2023-02-02T02:49:40.991Z,53.50
2023-02-02T02:50:41.291Z,51.88
2023-02-02T02:51:41.589Z,49.31
2023-02-02T02:52:41.904Z,49.47
2023-02-02T02:53:42.208Z,49.63
2023-02-02T02:54:42.521Z,49.15
2023-02-02T02:55:42.787Z,50.43
2023-02-02T02:56:43.155Z,48.66
2023-02-02T02:57:43.442Z,48.50
2023-02-02T02:58:43.829Z,48.98
2023-02-02T02:59:44.105Z,60.75
2023-02-02T03:00:44.341Z,51.08
2023-02-02T03:01:44.754Z,53.98
2023-02-02T03:02:44.956Z,49.47
2023-02-02T03:03:45.160Z,52.37
2023-02-02T03:04:45.527Z,56.40
2023-02-02T03:05:45.738Z,48.34
2023-02-02T03:06:46.084Z,50.43
2023-02-02T03:07:46.410Z,52.21
2023-02-02T03:08:46.743Z,50.60
2023-02-02T03:09:47.108Z,51.08
2023-02-02T03:10:47.382Z,53.66
2023-02-02T03:11:47.710Z,50.43
2023-02-02T03:12:48.075Z,48.98
2023-02-02T03:13:48.231Z,50.60
2023-02-02T03:14:48.573Z,50.60
2023-02-02T03:15:48.916Z,48.34
2023-02-02T03:16:49.145Z,50.92
2023-02-02T03:17:49.444Z,48.50
2023-02-02T03:18:49.774Z,63.00
2023-02-02T03:19:50.063Z,48.66
2023-02-02T03:20:50.376Z,52.21
2023-02-02T03:21:50.699Z,58.33
2023-02-02T03:22:50.987Z,51.56
2023-02-02T03:23:51.305Z,49.15
2023-02-02T03:24:51.644Z,49.63
2023-02-02T03:25:51.936Z,52.05
2023-02-02T03:26:52.273Z,52.69
2023-02-02T03:27:52.479Z,72.51
2023-02-02T03:28:52.788Z,50.60
2023-02-02T03:29:53.087Z,50.11
2023-02-02T03:30:53.483Z,50.27
2023-02-02T03:31:53.693Z,51.40
2023-02-02T03:32:54.016Z,49.95
2023-02-02T03:33:54.362Z,50.27
2023-02-02T03:34:54.693Z,49.31
2023-02-02T03:35:54.901Z,51.24
2023-02-02T03:36:55.178Z,57.52
2023-02-02T03:37:55.466Z,50.92
2023-02-02T03:38:55.779Z,55.91
2023-02-02T03:39:56.212Z,50.60
2023-02-02T03:40:56.411Z,54.30
2023-02-02T03:41:56.732Z,55.91
2023-02-02T03:42:57.046Z,48.98
2023-02-02T03:43:57.379Z,59.62
2023-02-02T03:44:57.701Z,52.21
2023-02-02T03:45:58.021Z,55.91
2023-02-02T03:46:58.358Z,53.33
2023-02-02T03:47:58.663Z,50.60
2023-02-02T03:48:58.955Z,52.53
2023-02-02T03:49:59.258Z,72.67
2023-02-02T03:50:59.522Z,60.26
2023-02-02T03:51:59.917Z,53.98
2023-02-02T03:53:00.289Z,53.17
2023-02-02T03:54:00.460Z,52.21
2023-02-02T03:55:00.770Z,58.65
2023-02-02T03:56:01.264Z,52.69
2023-02-02T03:57:01.402Z,49.63
2023-02-02T03:58:01.554Z,55.27
2023-02-02T03:59:01.818Z,53.33
2023-02-02T04:00:02.158Z,50.92
2023-02-02T04:01:02.476Z,64.45
2023-02-02T04:02:02.792Z,50.92
2023-02-02T04:03:03.093Z,56.24
2023-02-02T04:04:03.366Z,55.91
2023-02-02T04:05:03.543Z,60.26
2023-02-02T04:06:03.875Z,59.78
2023-02-02T04:07:04.302Z,57.69
2023-02-02T04:08:04.470Z,58.65
2023-02-02T04:09:04.802Z,61.55
2023-02-02T04:10:05.070Z,59.94
2023-02-02T04:11:05.451Z,60.91
2023-02-02T04:12:05.721Z,61.55
2023-02-02T04:13:06.104Z,52.85
2023-02-02T04:14:06.434Z,54.14
2023-02-02T04:15:06.741Z,60.42
2023-02-02T04:16:07.027Z,53.50
2023-02-02T04:17:08.183Z,57.04
2023-02-02T04:18:07.678Z,51.24
2023-02-02T04:19:07.984Z,53.17
2023-02-02T04:20:08.284Z,50.92
2023-02-02T04:21:08.682Z,55.75
2023-02-02T04:22:08.849Z,53.01
2023-02-02T04:23:09.189Z,54.95
2023-02-02T04:24:09.468Z,51.08
2023-02-02T04:25:09.838Z,51.40
2023-02-02T04:26:10.114Z,53.82
2023-02-02T04:27:10.498Z,57.69
2023-02-02T04:28:10.817Z,56.24
2023-02-02T04:29:11.126Z,57.85
2023-02-02T04:30:11.463Z,52.37
2023-02-02T04:31:11.936Z,51.88
2023-02-02T04:32:12.099Z,57.69
2023-02-02T04:33:12.457Z,55.43
2023-02-02T04:34:12.666Z,57.52
2023-02-02T04:35:12.989Z,58.97
2023-02-02T04:36:13.321Z,58.33
2023-02-02T04:37:13.605Z,56.72
2023-02-02T04:38:13.877Z,53.66
2023-02-02T04:39:14.273Z,62.20
2023-02-02T04:40:14.579Z,69.29
2023-02-02T04:41:14.942Z,57.20
2023-02-02T04:42:15.163Z,54.46
2023-02-02T04:43:15.481Z,59.94
2023-02-02T04:44:15.783Z,61.55
2023-02-02T04:45:16.233Z,56.24
2023-02-02T04:46:16.452Z,61.55
2023-02-02T04:47:16.743Z,59.30
2023-02-02T04:48:16.939Z,63.49
2023-02-02T04:49:17.251Z,56.40
2023-02-02T04:50:17.544Z,54.62
2023-02-02T04:51:17.863Z,58.81
2023-02-02T04:52:18.192Z,60.10
2023-02-02T04:53:18.515Z,55.75
2023-02-02T04:54:18.807Z,59.30
2023-02-02T04:55:19.063Z,64.78
2023-02-02T04:56:19.282Z,56.07
2023-02-02T04:57:19.668Z,60.42
2023-02-02T04:58:19.901Z,77.67
2023-02-02T04:59:20.237Z,55.11
2023-02-02T05:00:20.511Z,59.78
2023-02-02T05:01:20.905Z,53.66
2023-02-02T05:02:21.155Z,57.04
2023-02-02T05:03:21.464Z,60.59
2023-02-02T05:04:21.723Z,69.13
2023-02-02T05:05:22.294Z,57.69
2023-02-02T05:06:22.349Z,60.59
2023-02-02T05:07:22.715Z,55.43
2023-02-02T05:08:23.007Z,59.94
2023-02-02T05:09:23.406Z,59.30
2023-02-02T05:10:23.561Z,66.39
2023-02-02T05:11:23.820Z,72.35
2023-02-02T05:12:24.117Z,71.54
2023-02-02T05:13:24.403Z,55.59
2023-02-02T05:14:24.648Z,61.07
2023-02-02T05:15:25.184Z,57.52
2023-02-02T05:16:27.167Z,56.72
2023-02-02T05:17:25.493Z,60.26
2023-02-02T05:18:25.653Z,72.03
2023-02-02T05:19:26.924Z,53.82
2023-02-02T05:20:26.262Z,62.04
2023-02-02T05:21:26.589Z,56.72
2023-02-02T05:22:26.939Z,56.72
2023-02-02T05:23:27.166Z,61.07
2023-02-02T05:24:27.459Z,63.97
2023-02-02T05:25:27.807Z,58.17
2023-02-02T05:26:27.918Z,61.07
2023-02-02T05:27:28.131Z,60.59
2023-02-02T05:28:28.554Z,60.42
2023-02-02T05:29:28.766Z,77.99
2023-02-02T05:30:28.991Z,80.41
2023-02-02T05:31:29.313Z,91.68
2023-02-02T05:32:30.603Z,70.58
2023-02-02T05:33:29.854Z,59.78
2023-02-02T05:34:30.125Z,62.68
2023-02-02T05:35:30.430Z,61.55
2023-02-02T05:36:31.132Z,63.81
2023-02-02T05:37:31.084Z,72.67
2023-02-02T05:38:31.361Z,63.81
2023-02-02T05:39:31.700Z,62.84
2023-02-02T05:40:31.982Z,61.55
2023-02-02T05:41:32.370Z,69.77
2023-02-02T05:42:32.602Z,73.80
2023-02-02T05:43:32.951Z,58.65
2023-02-02T05:44:33.235Z,64.78
2023-02-02T05:45:33.664Z,76.86
2023-02-02T05:46:33.894Z,56.40
2023-02-02T05:47:34.288Z,68.48
2023-02-02T05:48:34.473Z,66.87
2023-02-02T05:49:34.809Z,57.85
2023-02-02T05:50:35.085Z,62.36
2023-02-02T05:51:35.592Z,61.07
2023-02-02T05:52:36.183Z,56.24
2023-02-02T05:53:36.069Z,71.22
2023-02-02T05:54:36.450Z,59.62
2023-02-02T05:55:36.751Z,62.52
2023-02-02T05:56:37.020Z,61.07
2023-02-02T05:57:37.386Z,58.97
2023-02-02T05:58:37.743Z,68.80
2023-02-02T05:59:38.086Z,60.26
2023-02-02T06:00:38.282Z,64.29
2023-02-02T06:01:38.531Z,71.87
2023-02-02T06:02:38.876Z,58.17
2023-02-02T06:03:39.342Z,60.75
2023-02-02T06:04:39.443Z,57.20
2023-02-02T06:05:39.798Z,60.26
2023-02-02T06:06:40.052Z,59.78
2023-02-02T06:07:40.371Z,59.14
2023-02-02T06:08:40.654Z,60.91
2023-02-02T06:09:40.887Z,70.09
2023-02-02T06:10:41.128Z,59.30
2023-02-02T06:11:41.427Z,69.13
2023-02-02T06:12:41.672Z,83.14
2023-02-02T06:13:43.761Z,60.59
2023-02-02T06:14:42.393Z,65.58
2023-02-02T06:15:42.676Z,74.28
2023-02-02T06:16:43.020Z,60.10
2023-02-02T06:17:43.279Z,70.25
2023-02-02T06:18:43.561Z,63.65
2023-02-02T06:19:43.886Z,65.10
2023-02-02T06:20:44.138Z,60.10
2023-02-02T06:21:44.377Z,58.33
2023-02-02T06:22:44.722Z,74.28
2023-02-02T06:23:45.085Z,61.23
2023-02-02T06:24:45.321Z,62.84
2023-02-02T06:25:45.571Z,63.00
2023-02-02T06:26:45.888Z,64.61
2023-02-02T06:27:46.166Z,63.16
2023-02-02T06:28:46.371Z,59.94
2023-02-02T06:29:46.608Z,66.06
2023-02-02T06:30:46.948Z,65.90
2023-02-02T06:31:47.377Z,56.88
2023-02-02T06:32:47.438Z,68.00
2023-02-02T06:33:47.689Z,58.65
2023-02-02T06:34:47.910Z,71.38
2023-02-02T06:35:48.290Z,62.36
2023-02-02T06:36:48.653Z,71.06
2023-02-02T06:37:48.868Z,68.80
2023-02-02T06:38:49.125Z,70.25
2023-02-02T06:39:49.440Z,63.81
2023-02-02T06:40:49.652Z,60.26
2023-02-02T06:41:50.118Z,73.96
2023-02-02T06:42:50.351Z,71.22
2023-02-02T06:43:50.730Z,66.23
2023-02-02T06:44:51.019Z,60.75
2023-02-02T06:45:51.385Z,65.26
2023-02-02T06:46:51.597Z,66.23
2023-02-02T06:47:51.853Z,75.89
2023-02-02T06:48:52.117Z,72.35
2023-02-02T06:49:52.461Z,69.93
2023-02-02T06:50:52.617Z,71.70
2023-02-02T06:51:52.982Z,65.10
2023-02-02T06:52:53.239Z,59.14
2023-02-02T06:53:53.531Z,60.59
2023-02-02T06:54:53.732Z,72.83
2023-02-02T06:55:53.955Z,58.81
2023-02-02T06:56:54.193Z,75.25
2023-02-02T06:57:54.525Z,67.19
2023-02-02T06:58:54.728Z,59.78
2023-02-02T06:59:55.020Z,74.77
2023-02-02T07:00:55.238Z,76.38
2023-02-02T07:01:55.530Z,66.06
2023-02-02T07:02:55.780Z,66.06
2023-02-02T07:03:56.053Z,65.10
2023-02-02T07:04:56.462Z,56.72
2023-02-02T07:05:56.541Z,72.19
2023-02-02T07:06:56.802Z,73.96
2023-02-02T07:07:57.117Z,63.97
2023-02-02T07:09:01.789Z,77.02
2023-02-02T07:09:58.677Z,77.83
2023-02-02T07:11:14.056Z,61.55
2023-02-02T07:11:59.534Z,62.84
2023-02-02T07:12:58.945Z,80.08
2023-02-02T07:13:58.771Z,66.39
2023-02-02T07:14:59.025Z,62.20
2023-02-02T07:15:59.325Z,64.13
2023-02-02T07:16:59.617Z,66.06
2023-02-02T07:17:59.812Z,67.84
2023-02-02T07:19:01.218Z,73.48
2023-02-02T07:20:00.349Z,61.87
2023-02-02T07:21:00.577Z,73.96
2023-02-02T07:22:01.018Z,66.06
2023-02-02T07:23:01.234Z,78.96
2023-02-02T07:24:01.474Z,57.20
2023-02-02T07:25:01.724Z,73.96
2023-02-02T07:26:01.995Z,74.93
2023-02-02T07:27:02.314Z,68.00
2023-02-02T07:28:02.507Z,69.93
2023-02-02T07:29:02.767Z,64.61
2023-02-02T07:30:03.046Z,72.51
2023-02-02T07:31:03.413Z,76.05
2023-02-02T07:32:03.549Z,60.42
2023-02-02T07:33:03.787Z,74.60
2023-02-02T07:34:04.130Z,60.42
2023-02-02T07:35:04.311Z,79.28
2023-02-02T07:36:04.555Z,58.33
2023-02-02T07:37:04.896Z,74.12
2023-02-02T07:38:05.162Z,73.80
2023-02-02T07:39:05.484Z,64.78
2023-02-02T07:40:06.194Z,60.59
2023-02-02T07:41:05.937Z,65.58
2023-02-02T07:42:06.204Z,74.77
2023-02-02T07:43:06.444Z,67.19
2023-02-02T07:44:06.748Z,61.71
2023-02-02T07:45:24.555Z,74.44
2023-02-02T07:46:08.440Z,77.34
2023-02-02T07:47:07.534Z,67.03
2023-02-02T07:48:07.777Z,70.90
2023-02-02T07:49:08.010Z,79.92
2023-02-02T07:50:08.329Z,61.23
2023-02-02T07:51:08.549Z,63.49
2023-02-02T07:52:08.841Z,75.73
2023-02-02T07:53:09.051Z,62.84
2023-02-02T07:54:09.327Z,62.68
2023-02-02T07:55:14.804Z,73.32
2023-02-02T07:56:09.887Z,60.59
2023-02-02T07:57:10.191Z,75.41
2023-02-02T07:58:10.483Z,67.19
2023-02-02T07:59:10.759Z,61.07
2023-02-02T08:00:10.964Z,61.87
2023-02-02T08:01:11.201Z,66.87
2023-02-02T08:02:11.531Z,64.13
2023-02-02T08:03:11.808Z,59.94
2023-02-02T08:04:12.651Z,73.96
2023-02-02T08:05:12.316Z,61.23
2023-02-02T08:06:12.715Z,69.77
2023-02-02T08:07:14.314Z,69.77
2023-02-02T08:08:13.278Z,61.87
2023-02-02T08:09:13.608Z,62.36
2023-02-02T08:10:13.885Z,68.00
2023-02-02T08:11:14.095Z,68.80
2023-02-02T08:12:14.392Z,62.84
2023-02-02T08:13:14.608Z,60.59
2023-02-02T08:14:14.853Z,68.48
2023-02-02T08:15:15.151Z,69.13
2023-02-02T08:16:15.477Z,80.57
2023-02-02T08:17:15.670Z,61.71
2023-02-02T08:18:15.947Z,58.81
2023-02-02T08:19:16.226Z,67.03
2023-02-02T08:20:16.494Z,73.15
2023-02-02T08:21:16.741Z,64.45
2023-02-02T08:22:18.804Z,63.81
2023-02-02T08:23:17.312Z,63.33
2023-02-02T08:24:17.593Z,58.65
2023-02-02T08:25:17.865Z,69.29
2023-02-02T08:26:18.185Z,73.32
2023-02-02T08:27:18.389Z,64.78
2023-02-02T08:28:18.662Z,67.03
2023-02-02T08:29:19.019Z,61.71
2023-02-02T08:30:19.268Z,62.52
2023-02-02T08:31:19.482Z,77.02
2023-02-02T08:32:19.751Z,77.83
2023-02-02T08:33:19.984Z,57.69
2023-02-02T08:34:20.242Z,63.49
2023-02-02T08:35:20.515Z,72.19
2023-02-02T08:36:20.748Z,79.92
2023-02-02T08:37:21.043Z,68.32
2023-02-02T08:38:21.249Z,73.96
2023-02-02T08:39:21.512Z,74.44
2023-02-02T08:40:21.826Z,60.10
2023-02-02T08:41:22.056Z,63.16
2023-02-02T08:42:22.411Z,58.81
2023-02-02T08:43:22.675Z,63.65
2023-02-02T08:44:23.655Z,68.64
2023-02-02T08:46:04.342Z,63.49
2023-02-02T08:46:24.609Z,73.64
2023-02-02T08:47:23.876Z,68.64
2023-02-02T08:48:24.135Z,63.81
2023-02-02T08:49:24.834Z,64.29
2023-02-02T08:50:24.713Z,62.84
2023-02-02T08:51:24.940Z,68.16
2023-02-02T08:52:25.911Z,74.12
2023-02-02T08:53:25.461Z,68.64
2023-02-02T08:54:25.761Z,62.68
2023-02-02T08:55:26.356Z,70.74
2023-02-02T08:56:26.374Z,63.33
2023-02-02T08:57:26.477Z,75.09
2023-02-02T08:58:26.735Z,60.91
2023-02-02T08:59:27.025Z,63.00
2023-02-02T09:00:27.243Z,73.48
2023-02-02T09:01:27.688Z,61.39
2023-02-02T09:02:27.843Z,71.70
2023-02-02T09:03:28.032Z,66.23
2023-02-02T09:04:28.442Z,75.89
2023-02-02T09:05:28.653Z,64.13
2023-02-02T09:06:28.948Z,63.16
2023-02-02T09:07:29.207Z,60.75
2023-02-02T09:08:29.485Z,74.77
2023-02-02T09:09:29.703Z,72.51
2023-02-02T09:10:29.952Z,62.20
2023-02-02T09:11:30.231Z,73.64
2023-02-02T09:12:30.516Z,72.99
2023-02-02T09:13:30.759Z,72.19
2023-02-02T09:14:31.076Z,63.33
2023-02-02T09:15:31.278Z,71.70
2023-02-02T09:16:31.565Z,73.32
2023-02-02T09:17:31.765Z,67.68
2023-02-02T09:18:32.037Z,68.16
2023-02-02T09:19:32.287Z,72.99
2023-02-02T09:20:32.553Z,70.74
2023-02-02T09:21:32.862Z,64.78
2023-02-02T09:22:33.100Z,75.73
2023-02-02T09:23:33.463Z,72.35
2023-02-02T09:24:33.701Z,80.41
2023-02-02T09:25:34.005Z,72.51
2023-02-02T09:26:34.248Z,72.67
2023-02-02T09:27:34.550Z,79.92
2023-02-02T09:28:34.807Z,75.89
2023-02-02T09:29:35.100Z,68.96
2023-02-02T09:30:35.429Z,66.87
2023-02-02T09:31:35.635Z,67.35
2023-02-02T09:32:35.901Z,74.44
2023-02-02T09:33:36.170Z,77.99
2023-02-02T09:34:36.448Z,80.73
2023-02-02T09:35:36.676Z,75.89
2023-02-02T09:36:36.931Z,79.44
2023-02-02T09:37:37.267Z,69.93
2023-02-02T09:38:37.458Z,73.48
2023-02-02T09:39:37.727Z,80.24
2023-02-02T09:40:37.989Z,72.19
2023-02-02T09:41:38.290Z,78.15
2023-02-02T09:42:38.496Z,65.42
2023-02-02T09:43:38.738Z,70.74
2023-02-02T09:44:39.000Z,69.13
2023-02-02T09:45:39.305Z,62.68
2023-02-02T09:46:39.528Z,63.49
2023-02-02T09:47:39.761Z,64.78
2023-02-02T09:48:40.005Z,68.32
2023-02-02T09:49:40.226Z,72.35
2023-02-02T09:50:40.624Z,61.07
2023-02-02T09:51:40.902Z,64.61
2023-02-02T09:52:41.646Z,72.83
2023-02-02T09:53:54.802Z,63.97
2023-02-02T09:54:42.697Z,64.78
2023-02-02T09:55:41.980Z,77.67
2023-02-02T09:56:42.268Z,70.42
2023-02-02T09:57:42.543Z,63.49
2023-02-02T09:58:42.779Z,65.74
2023-02-02T09:59:43.029Z,60.75
2023-02-02T10:00:43.295Z,68.80
2023-02-02T10:01:43.636Z,69.13
2023-02-02T10:02:43.887Z,79.44
2023-02-02T10:03:44.174Z,60.75
2023-02-02T10:04:44.367Z,68.16
2023-02-02T10:05:44.677Z,60.10
2023-02-02T10:06:45.000Z,60.91
2023-02-02T10:07:45.281Z,72.83
2023-02-02T10:08:45.496Z,68.16
2023-02-02T10:09:45.803Z,60.26
2023-02-02T10:10:46.172Z,71.54
2023-02-02T10:11:46.842Z,69.61
2023-02-02T10:12:46.679Z,74.28
2023-02-02T10:13:47.003Z,75.57
2023-02-02T10:14:47.249Z,73.64
2023-02-02T10:15:47.518Z,73.80
2023-02-02T10:16:47.865Z,70.09
2023-02-02T10:17:48.060Z,76.86
2023-02-02T10:18:48.306Z,69.77
2023-02-02T10:19:48.541Z,73.80
2023-02-02T10:20:48.969Z,69.93
2023-02-02T10:21:49.130Z,68.16
2023-02-02T10:22:49.396Z,80.89
2023-02-02T10:23:49.609Z,69.13
2023-02-02T10:24:49.855Z,70.09
2023-02-02T10:25:50.073Z,72.03
2023-02-02T10:26:50.559Z,74.44
2023-02-02T10:27:50.871Z,61.23
2023-02-02T10:28:51.191Z,58.65
2023-02-02T10:29:51.387Z,65.74
2023-02-02T10:30:51.849Z,71.87
2023-02-02T10:31:52.288Z,59.30
2023-02-02T10:32:52.450Z,67.84
2023-02-02T10:33:52.604Z,71.70
2023-02-02T10:35:06.850Z,57.52
2023-02-02T10:35:54.727Z,69.13
2023-02-02T10:36:53.438Z,57.20
2023-02-02T10:37:53.700Z,57.52
2023-02-02T10:38:54.015Z,79.12
2023-02-02T10:39:54.278Z,65.58
2023-02-02T10:40:54.536Z,60.26
2023-02-02T10:41:54.865Z,67.19
2023-02-02T10:42:57.155Z,73.15
2023-02-02T10:43:55.299Z,70.58
2023-02-02T10:44:55.557Z,64.29
2023-02-02T10:45:55.947Z,62.20
2023-02-02T10:46:56.131Z,75.41
2023-02-02T10:47:56.331Z,69.13
2023-02-02T10:48:56.766Z,62.20
2023-02-02T10:49:56.858Z,59.78
2023-02-02T10:50:57.542Z,64.45
2023-02-02T10:51:57.391Z,68.80
2023-02-02T10:52:57.837Z,71.22
2023-02-02T10:53:57.938Z,65.58
2023-02-02T10:54:59.539Z,65.10
2023-02-02T10:55:58.459Z,65.74
2023-02-02T10:56:58.797Z,68.00
2023-02-02T10:57:59.033Z,68.16
2023-02-02T10:58:59.358Z,73.48
2023-02-02T10:59:59.556Z,59.46
2023-02-02T11:00:59.879Z,66.55
2023-02-02T11:02:08.722Z,64.45
2023-02-02T11:03:01.365Z,73.64
2023-02-02T11:04:00.779Z,61.07
2023-02-02T11:05:00.999Z,61.39
2023-02-02T11:06:01.277Z,83.31
2023-02-02T11:07:01.787Z,73.32
2023-02-02T11:08:01.831Z,72.19
2023-02-02T11:09:02.075Z,66.87
2023-02-02T11:10:02.353Z,62.52
2023-02-02T11:11:02.681Z,68.80
2023-02-02T11:12:02.904Z,65.10
2023-02-02T11:13:03.335Z,71.87
2023-02-02T11:14:03.602Z,62.84
2023-02-02T11:15:03.884Z,67.51
2023-02-02T11:16:05.867Z,65.58
2023-02-02T11:17:05.439Z,64.13
2023-02-02T11:18:04.761Z,72.35
2023-02-02T11:19:05.123Z,71.70
2023-02-02T11:20:05.215Z,66.06
2023-02-02T11:21:05.484Z,64.78
2023-02-02T11:22:05.773Z,73.80
2023-02-02T11:23:06.147Z,68.48
2023-02-02T11:24:06.257Z,74.93
2023-02-02T11:25:06.547Z,74.93
2023-02-02T11:26:06.834Z,70.25
2023-02-02T11:27:07.133Z,73.48
2023-02-02T11:28:07.340Z,69.93
2023-02-02T11:29:07.664Z,72.19
2023-02-02T11:30:08.851Z,59.94
2023-02-02T11:31:08.211Z,63.49
2023-02-02T11:32:08.441Z,63.97
2023-02-02T11:33:08.682Z,77.50
2023-02-02T11:34:08.997Z,71.38
2023-02-02T11:35:09.280Z,61.87
2023-02-02T11:36:09.545Z,69.29
2023-02-02T11:37:09.814Z,82.82
2023-02-02T11:38:10.510Z,67.19
2023-02-02T11:39:10.346Z,62.52
2023-02-02T11:40:10.616Z,67.03
2023-02-02T11:41:10.926Z,71.70
2023-02-02T11:42:11.231Z,69.93
2023-02-02T11:43:11.493Z,59.94
2023-02-02T11:44:11.908Z,66.87
2023-02-02T11:45:12.009Z,70.09
2023-02-02T11:46:12.333Z,59.94
2023-02-02T11:47:12.633Z,70.90
2023-02-02T11:48:12.909Z,63.81
2023-02-02T11:49:13.183Z,66.71
2023-02-02T11:50:13.473Z,70.25
2023-02-02T11:51:13.805Z,71.22
2023-02-02T11:52:13.909Z,63.81
2023-02-02T11:53:14.258Z,65.58
2023-02-02T11:54:14.491Z,73.96
2023-02-02T11:55:14.951Z,61.23
2023-02-02T11:56:15.056Z,64.13
2023-02-02T11:57:15.345Z,65.26
2023-02-02T11:58:15.661Z,64.78
2023-02-02T11:59:15.874Z,67.51
2023-02-02T12:00:16.147Z,67.68
2023-02-02T12:01:16.538Z,65.74
2023-02-02T12:02:16.895Z,69.13
2023-02-02T12:03:16.974Z,68.96
2023-02-02T12:04:17.339Z,68.64
2023-02-02T12:05:17.551Z,66.06
2023-02-02T12:06:17.799Z,65.42
2023-02-02T12:07:18.112Z,66.06
2023-02-02T12:08:18.321Z,66.23
2023-02-02T12:09:18.584Z,65.10
2023-02-02T12:10:18.871Z,65.26
2023-02-02T12:11:19.130Z,70.58
2023-02-02T12:12:19.578Z,73.64
2023-02-02T12:13:19.650Z,64.45
2023-02-02T12:14:19.895Z,78.79
2023-02-02T12:15:20.161Z,75.57
2023-02-02T12:16:20.419Z,65.58
2023-02-02T12:17:20.743Z,67.03
2023-02-02T12:18:20.993Z,73.64
2023-02-02T12:19:21.267Z,68.16
2023-02-02T12:20:21.513Z,68.64
2023-02-02T12:21:21.792Z,72.19
2023-02-02T12:22:22.157Z,62.20
2023-02-02T12:23:22.404Z,71.87
2023-02-02T12:24:22.736Z,67.68
2023-02-02T12:25:23.230Z,60.75
2023-02-02T12:26:23.278Z,59.14
2023-02-02T12:27:23.574Z,68.32
2023-02-02T12:28:23.812Z,65.90
2023-02-02T12:29:24.098Z,70.25
2023-02-02T12:30:24.624Z,64.45
2023-02-02T12:31:24.762Z,60.59
2023-02-02T12:32:24.894Z,70.90
2023-02-02T12:33:25.203Z,62.84
2023-02-02T12:34:25.575Z,64.78
2023-02-02T12:35:25.867Z,71.38
2023-02-02T12:36:26.118Z,70.90
2023-02-02T12:37:26.580Z,65.42
2023-02-02T12:38:26.691Z,63.33
2023-02-02T12:39:27.227Z,60.10
2023-02-02T12:40:27.604Z,60.42
2023-02-02T12:41:27.638Z,61.71
2023-02-02T12:42:27.864Z,72.67
2023-02-02T12:43:28.187Z,68.00
2023-02-02T12:44:28.430Z,69.13
2023-02-02T12:45:28.766Z,73.48
2023-02-02T12:46:28.979Z,72.83
2023-02-02T12:47:29.222Z,73.80
2023-02-02T12:48:29.531Z,65.26
2023-02-02T12:49:29.809Z,72.99
2023-02-02T12:50:30.163Z,61.07
2023-02-02T12:51:30.552Z,67.19
2023-02-02T12:52:30.660Z,66.71
2023-02-02T12:53:30.970Z,68.96
2023-02-02T12:54:33.065Z,72.99
2023-02-02T12:55:31.498Z,61.87
2023-02-02T12:56:31.777Z,74.12